createdAt,value
2022-12-16T00:04:05.543Z,30.00
2022-12-16T00:09:25.624Z,30.00
2022-12-16T00:14:45.770Z,30.00
2022-12-16T00:20:05.897Z,30.00
2022-12-16T00:25:26.061Z,29.90
2022-12-16T00:30:46.119Z,30.00
2022-12-16T00:36:06.297Z,30.00
2022-12-16T00:41:26.439Z,30.20
2022-12-16T00:46:46.587Z,30.30
2022-12-16T00:52:06.741Z,30.40
2022-12-16T00:57:26.911Z,30.30
2022-12-16T01:02:47.152Z,30.20
2022-12-16T01:08:07.190Z,30.10
2022-12-16T01:13:27.227Z,30.10
2022-12-16T01:18:47.279Z,30.10
2022-12-16T01:24:07.218Z,30.20
2022-12-16T01:29:27.297Z,30.30
2022-12-16T01:34:52.494Z,30.50
2022-12-16T01:40:15.461Z,30.50
2022-12-16T01:45:35.592Z,30.50
2022-12-16T01:50:55.563Z,30.40
2022-12-16T01:56:15.659Z,30.40
2022-12-16T02:01:35.987Z,30.30
2022-12-16T02:06:56.120Z,30.30
2022-12-16T02:12:16.195Z,30.40
2022-12-16T02:17:36.405Z,30.50
2022-12-16T02:22:56.491Z,30.70
2022-12-16T02:28:16.643Z,30.70
2022-12-16T02:33:36.719Z,30.70
2022-12-16T02:38:56.902Z,30.60
2022-12-16T02:44:16.845Z,30.50
2022-12-16T02:49:36.936Z,30.40
2022-12-16T02:54:57.122Z,30.20
2022-12-16T03:00:17.215Z,30.20
2022-12-16T03:05:37.491Z,30.30
2022-12-16T03:10:57.821Z,30.40
2022-12-16T03:16:17.895Z,30.60
2022-12-16T03:21:38.091Z,30.80
2022-12-16T03:26:58.097Z,30.80
2022-12-16T03:32:18.135Z,30.70
2022-12-16T03:37:38.319Z,30.60
2022-12-16T03:42:58.362Z,30.40
2022-12-16T03:48:18.705Z,30.40
2022-12-16T03:53:38.977Z,30.30
2022-12-16T03:58:59.052Z,30.30
2022-12-16T04:04:19.210Z,30.40
2022-12-16T04:09:39.361Z,30.70
2022-12-16T04:14:59.471Z,30.80
2022-12-16T04:20:19.556Z,30.90
2022-12-16T04:25:39.584Z,30.80
2022-12-16T04:30:59.719Z,30.70
2022-12-16T04:36:19.783Z,30.50
2022-12-16T04:41:39.978Z,30.30
2022-12-16T04:47:00.089Z,30.20
2022-12-16T04:52:20.275Z,30.20
2022-12-16T04:57:40.459Z,30.40
2022-12-16T05:03:00.681Z,30.50
2022-12-16T05:08:20.870Z,30.70
2022-12-16T05:13:40.934Z,30.90
2022-12-16T05:19:00.993Z,31.00
2022-12-16T05:24:21.110Z,30.90
2022-12-16T05:29:41.131Z,30.70
2022-12-16T05:35:01.287Z,30.50
2022-12-16T05:40:21.319Z,30.30
2022-12-16T05:45:41.776Z,30.30
2022-12-16T05:51:01.768Z,30.40
2022-12-16T05:56:21.871Z,30.50
2022-12-16T06:01:42.188Z,30.50
2022-12-16T06:07:02.327Z,30.80
2022-12-16T06:12:22.423Z,31.00
2022-12-16T06:17:42.605Z,31.00
2022-12-16T06:23:02.721Z,30.90
2022-12-16T06:28:22.817Z,30.70
2022-12-16T06:33:42.903Z,30.60
2022-12-16T06:39:03.137Z,30.40
2022-12-16T06:44:23.383Z,30.40
2022-12-16T06:49:43.489Z,30.40
2022-12-16T06:55:03.539Z,30.50
2022-12-16T07:00:23.747Z,30.70
2022-12-16T07:05:43.801Z,30.80
2022-12-16T07:11:16.004Z,31.00
2022-12-16T07:16:37.341Z,31.00
2022-12-16T07:21:57.453Z,31.00
2022-12-16T07:27:17.834Z,30.80
2022-12-16T07:32:38.325Z,30.70
2022-12-16T07:37:58.563Z,30.70
2022-12-16T07:43:18.738Z,30.70
2022-12-16T07:48:38.929Z,30.80
2022-12-16T07:53:59.066Z,31.00
2022-12-16T07:59:19.413Z,31.10
2022-12-16T08:04:39.388Z,31.10
2022-12-16T08:09:59.661Z,31.10
2022-12-16T08:15:19.672Z,30.80
2022-12-16T08:20:39.918Z,30.70
2022-12-16T08:26:00.104Z,30.60
2022-12-16T08:31:20.311Z,30.60
2022-12-16T08:36:40.436Z,30.60
2022-12-16T08:42:00.774Z,30.70
2022-12-16T08:47:20.873Z,30.80
2022-12-16T08:52:40.992Z,31.00
2022-12-16T08:58:01.081Z,31.00
2022-12-16T09:03:21.608Z,31.10
2022-12-16T09:08:41.928Z,31.00
2022-12-16T09:14:02.188Z,31.00
2022-12-16T09:19:22.312Z,30.90
2022-12-16T09:24:42.661Z,30.80
2022-12-16T09:30:02.824Z,30.80
2022-12-16T09:35:23.120Z,30.80
2022-12-16T09:40:43.343Z,31.00
2022-12-16T09:46:03.522Z,31.10
2022-12-16T09:51:23.556Z,31.20
2022-12-16T09:56:43.803Z,31.10
2022-12-16T10:02:03.980Z,30.90
2022-12-16T10:07:24.210Z,30.80
2022-12-16T10:12:44.343Z,30.60
2022-12-16T10:18:04.656Z,30.60
2022-12-16T10:23:24.566Z,30.60
2022-12-16T10:28:44.834Z,30.80
2022-12-16T10:34:04.865Z,30.90
2022-12-16T10:39:25.184Z,31.00
2022-12-16T10:44:45.147Z,31.10
2022-12-16T10:50:05.287Z,31.10
2022-12-16T10:55:25.343Z,31.00
2022-12-16T11:00:45.448Z,30.80
2022-12-16T11:06:05.459Z,30.70
2022-12-16T11:11:25.706Z,30.60
2022-12-16T11:16:45.955Z,30.70
2022-12-16T11:22:06.167Z,30.60
2022-12-16T11:27:26.276Z,30.80
2022-12-16T11:32:46.685Z,31.00
2022-12-16T11:38:06.964Z,31.10
2022-12-16T11:43:27.111Z,31.10
2022-12-16T11:48:47.183Z,31.00
2022-12-16T11:54:07.372Z,30.80
2022-12-16T11:59:27.489Z,30.70
2022-12-16T12:04:47.748Z,30.60
2022-12-16T12:10:07.814Z,30.60
2022-12-16T12:15:28.449Z,30.60
2022-12-16T12:20:48.557Z,30.70
2022-12-16T12:26:08.820Z,30.90
2022-12-16T12:31:28.795Z,31.00
2022-12-16T12:36:49.054Z,31.10
2022-12-16T12:42:09.148Z,31.10
2022-12-16T12:47:29.381Z,30.90
2022-12-16T12:52:49.474Z,30.80
2022-12-16T12:58:09.702Z,30.70
2022-12-16T13:03:29.975Z,30.80
2022-12-16T13:08:50.186Z,30.80
2022-12-16T13:14:10.227Z,31.00
2022-12-16T13:19:30.525Z,31.10
2022-12-16T13:24:50.736Z,31.20
2022-12-16T13:30:11.260Z,31.10
2022-12-16T13:35:31.190Z,30.90
2022-12-16T13:40:51.374Z,30.80
2022-12-16T13:46:11.572Z,30.60
2022-12-16T13:51:31.785Z,30.60
2022-12-16T13:56:51.819Z,30.60
2022-12-16T14:02:12.074Z,30.70
2022-12-16T14:07:32.060Z,30.80
2022-12-16T14:12:52.159Z,31.10
2022-12-16T14:18:12.275Z,31.20
2022-12-16T14:23:55.804Z,31.10
2022-12-16T14:29:13.180Z,31.00
2022-12-16T14:34:33.104Z,30.80
2022-12-16T14:39:53.170Z,30.60
2022-12-16T14:45:13.384Z,30.60
2022-12-16T14:50:33.457Z,30.60
2022-12-16T14:55:53.674Z,30.70
2022-12-16T15:01:15.963Z,30.80
2022-12-16T15:06:36.446Z,31.00
2022-12-16T15:11:56.486Z,31.20
2022-12-16T15:17:16.893Z,31.10
2022-12-16T15:22:36.808Z,31.00
2022-12-16T15:27:56.966Z,30.90
2022-12-16T15:33:17.081Z,30.80
2022-12-16T15:38:37.160Z,30.70
2022-12-16T15:43:57.785Z,30.60
2022-12-16T15:49:17.848Z,30.70
2022-12-16T15:54:37.944Z,30.80
2022-12-16T15:59:57.927Z,31.00
2022-12-16T16:05:18.047Z,31.10
2022-12-16T16:10:38.275Z,31.20
2022-12-16T16:15:58.358Z,31.10
2022-12-16T16:21:18.429Z,31.00
2022-12-16T16:26:38.632Z,30.80
2022-12-16T16:32:03.862Z,30.70
2022-12-16T16:37:24.690Z,30.70
2022-12-16T16:42:44.817Z,30.70
2022-12-16T16:48:05.124Z,30.70
2022-12-16T16:53:25.354Z,31.00
2022-12-16T16:58:45.517Z,31.10
2022-12-16T17:04:05.896Z,31.20
2022-12-16T17:09:25.993Z,31.20
2022-12-16T17:14:46.062Z,31.10
2022-12-16T17:20:06.236Z,31.00
2022-12-16T17:25:26.361Z,30.80
2022-12-16T17:30:47.926Z,30.80
2022-12-16T17:36:08.222Z,30.70
2022-12-16T17:41:28.309Z,30.80
2022-12-16T17:46:48.598Z,30.90
2022-12-16T17:52:08.484Z,31.10
2022-12-16T17:57:28.522Z,31.20
2022-12-16T18:02:48.869Z,31.20
2022-12-16T18:08:08.871Z,31.10
2022-12-16T18:13:29.074Z,30.90
2022-12-16T18:18:49.126Z,30.80
2022-12-16T18:24:09.189Z,30.60
2022-12-16T18:29:29.423Z,30.60
2022-12-16T18:34:49.613Z,30.70
2022-12-16T18:40:09.811Z,30.80
2022-12-16T18:45:29.884Z,31.00
2022-12-16T18:50:50.133Z,31.10
2022-12-16T18:56:10.383Z,31.20
2022-12-16T19:01:30.865Z,31.20
2022-12-16T19:06:50.839Z,31.00
2022-12-16T19:12:11.110Z,30.90
2022-12-16T19:17:31.353Z,30.80
2022-12-16T19:22:51.687Z,30.60
2022-12-16T19:28:11.745Z,30.60
2022-12-16T19:33:31.978Z,30.70
2022-12-16T19:38:52.073Z,30.80
2022-12-16T19:44:12.237Z,30.90
2022-12-16T19:49:32.423Z,31.00
2022-12-16T19:54:54.782Z,31.10
2022-12-16T20:00:16.287Z,31.10
2022-12-16T20:05:36.464Z,30.80
2022-12-16T20:10:56.675Z,30.80
2022-12-16T20:16:16.948Z,30.70
2022-12-16T20:21:37.401Z,30.60
2022-12-16T20:26:57.626Z,30.60
2022-12-16T20:32:17.777Z,30.80
2022-12-16T20:37:37.999Z,31.00
2022-12-16T20:42:58.406Z,31.00
2022-12-16T20:48:18.539Z,31.00
2022-12-16T20:53:39.279Z,30.80
2022-12-16T20:58:59.388Z,30.60
2022-12-16T21:04:19.645Z,30.50
2022-12-16T21:09:39.903Z,30.40
2022-12-16T21:15:00.127Z,30.40
2022-12-16T21:20:20.094Z,30.40
2022-12-16T21:25:40.332Z,30.60
2022-12-16T21:31:00.468Z,30.80
2022-12-16T21:36:20.691Z,30.80
2022-12-16T21:41:40.794Z,30.90
2022-12-16T21:47:01.091Z,30.80
2022-12-16T21:52:24.211Z,30.70
2022-12-16T21:57:44.439Z,30.60
2022-12-16T22:03:04.474Z,30.50
2022-12-16T22:08:24.696Z,30.60
2022-12-16T22:13:44.725Z,30.60
2022-12-16T22:19:04.912Z,30.80
2022-12-16T22:24:24.991Z,31.00
2022-12-16T22:29:45.297Z,31.00
2022-12-16T22:35:05.447Z,30.90
2022-12-16T22:40:25.722Z,30.70
2022-12-16T22:45:45.897Z,30.70
2022-12-16T22:51:06.123Z,30.60
2022-12-16T22:56:26.222Z,30.60
2022-12-16T23:01:46.471Z,30.60
2022-12-16T23:07:06.460Z,30.70
2022-12-16T23:12:26.701Z,30.80
2022-12-16T23:17:46.751Z,30.90
2022-12-16T23:23:07.106Z,30.80
2022-12-16T23:28:27.273Z,30.80
2022-12-16T23:33:47.383Z,30.70
2022-12-16T23:39:07.578Z,30.70
2022-12-16T23:44:27.742Z,30.70
2022-12-16T23:49:47.875Z,30.90
2022-12-16T23:55:07.990Z,31.00
